sensor_id;sensor_type;location;lat;lon;timestamp;temperature;humidity
336;DHT22;156;48.738;9.228;2022-12-18T00:02:01;-8.10;25.40
336;DHT22;156;48.738;9.228;2022-12-18T00:04:28;-8.10;24.90
336;DHT22;156;48.738;9.228;2022-12-18T00:06:56;-8.20;24.50
336;DHT22;156;48.738;9.228;2022-12-18T00:09:23;-8.20;26.50
336;DHT22;156;48.738;9.228;2022-12-18T00:11:50;-8.20;26.20
336;DHT22;156;48.738;9.228;2022-12-18T00:14:19;-8.30;25.70
336;DHT22;156;48.738;9.228;2022-12-18T00:16:46;-8.20;26.50
336;DHT22;156;48.738;9.228;2022-12-18T00:19:14;-8.30;26.40
336;DHT22;156;48.738;9.228;2022-12-18T00:21:42;-8.30;26.90
336;DHT22;156;48.738;9.228;2022-12-18T00:24:09;-8.40;29.60
336;DHT22;156;48.738;9.228;2022-12-18T00:26:37;-8.40;30.00
336;DHT22;156;48.738;9.228;2022-12-18T00:29:05;-8.40;32.60
336;DHT22;156;48.738;9.228;2022-12-18T00:31:35;-8.50;34.10
336;DHT22;156;48.738;9.228;2022-12-18T00:34:02;-8.50;36.90
336;DHT22;156;48.738;9.228;2022-12-18T00:36:30;-8.60;38.80
336;DHT22;156;48.738;9.228;2022-12-18T00:38:59;-8.60;40.20
336;DHT22;156;48.738;9.228;2022-12-18T00:41:27;-8.60;41.30
336;DHT22;156;48.738;9.228;2022-12-18T00:44:13;-8.60;42.00
336;DHT22;156;48.738;9.228;2022-12-18T00:46:42;-8.70;41.90
336;DHT22;156;48.738;9.228;2022-12-18T00:49:09;-8.60;42.50
336;DHT22;156;48.738;9.228;2022-12-18T00:51:39;-8.60;42.40
336;DHT22;156;48.738;9.228;2022-12-18T00:54:06;-8.60;39.30
336;DHT22;156;48.738;9.228;2022-12-18T00:56:35;-8.70;38.50
336;DHT22;156;48.738;9.228;2022-12-18T00:59:03;-8.70;35.20
336;DHT22;156;48.738;9.228;2022-12-18T01:01:30;-8.80;34.70
336;DHT22;156;48.738;9.228;2022-12-18T01:04:00;-8.90;35.10
336;DHT22;156;48.738;9.228;2022-12-18T01:06:27;-8.90;37.20
336;DHT22;156;48.738;9.228;2022-12-18T01:08:54;-8.60;38.80
336;DHT22;156;48.738;9.228;2022-12-18T01:11:21;-8.80;39.00
336;DHT22;156;48.738;9.228;2022-12-18T01:13:48;-8.80;39.00
336;DHT22;156;48.738;9.228;2022-12-18T01:16:16;-8.80;38.70
336;DHT22;156;48.738;9.228;2022-12-18T01:18:44;-8.90;38.90
336;DHT22;156;48.738;9.228;2022-12-18T01:21:16;-8.90;36.20
336;DHT22;156;48.738;9.228;2022-12-18T01:23:43;-8.90;37.40
336;DHT22;156;48.738;9.228;2022-12-18T01:26:12;-8.90;35.20
336;DHT22;156;48.738;9.228;2022-12-18T01:28:40;-8.80;43.70
336;DHT22;156;48.738;9.228;2022-12-18T01:31:16;-8.90;34.20
336;DHT22;156;48.738;9.228;2022-12-18T01:33:44;-8.80;35.50
336;DHT22;156;48.738;9.228;2022-12-18T01:36:19;-8.80;34.80
336;DHT22;156;48.738;9.228;2022-12-18T01:38:47;-8.70;38.10
336;DHT22;156;48.738;9.228;2022-12-18T01:41:15;-8.80;36.40
336;DHT22;156;48.738;9.228;2022-12-18T01:43:44;-8.70;39.10
336;DHT22;156;48.738;9.228;2022-12-18T01:46:11;-8.60;38.70
336;DHT22;156;48.738;9.228;2022-12-18T01:48:41;-8.60;38.10
336;DHT22;156;48.738;9.228;2022-12-18T01:51:09;-8.50;38.30
336;DHT22;156;48.738;9.228;2022-12-18T01:53:39;-8.40;39.30
336;DHT22;156;48.738;9.228;2022-12-18T01:56:07;-8.40;39.10
336;DHT22;156;48.738;9.228;2022-12-18T01:58:39;-8.30;40.40
336;DHT22;156;48.738;9.228;2022-12-18T02:01:08;-8.30;39.30
336;DHT22;156;48.738;9.228;2022-12-18T02:03:35;-8.00;52.60
336;DHT22;156;48.738;9.228;2022-12-18T02:06:07;-8.20;37.10
336;DHT22;156;48.738;9.228;2022-12-18T02:08:44;-8.10;39.20
336;DHT22;156;48.738;9.228;2022-12-18T02:11:18;-7.20;40.30
336;DHT22;156;48.738;9.228;2022-12-18T02:13:53;-7.90;39.10
336;DHT22;156;48.738;9.228;2022-12-18T02:16:24;-7.80;36.80
336;DHT22;156;48.738;9.228;2022-12-18T02:18:58;-7.80;34.50
336;DHT22;156;48.738;9.228;2022-12-18T02:21:31;-7.70;48.10
336;DHT22;156;48.738;9.228;2022-12-18T02:24:17;-7.80;29.40
336;DHT22;156;48.738;9.228;2022-12-18T02:26:50;-7.80;28.80
336;DHT22;156;48.738;9.228;2022-12-18T02:29:22;-7.80;24.40
336;DHT22;156;48.738;9.228;2022-12-18T02:31:55;-7.80;23.20
336;DHT22;156;48.738;9.228;2022-12-18T02:34:28;-7.70;27.90
336;DHT22;156;48.738;9.228;2022-12-18T02:36:57;-7.80;18.10
336;DHT22;156;48.738;9.228;2022-12-18T02:39:26;-7.80;15.20
336;DHT22;156;48.738;9.228;2022-12-18T02:41:56;-7.80;13.80
336;DHT22;156;48.738;9.228;2022-12-18T02:44:24;-7.80;17.90
336;DHT22;156;48.738;9.228;2022-12-18T02:46:52;-7.80;7.80
336;DHT22;156;48.738;9.228;2022-12-18T02:49:31;-7.90;6.40
336;DHT22;156;48.738;9.228;2022-12-18T02:52:06;-7.90;3.10
336;DHT22;156;48.738;9.228;2022-12-18T02:54:47;-8.00;2.60
336;DHT22;156;48.738;9.228;2022-12-18T02:57:23;-8.10;1.00
336;DHT22;156;48.738;9.228;2022-12-18T02:59:58;-8.20;1.00
336;DHT22;156;48.738;9.228;2022-12-18T03:02:31;-8.30;1.00
336;DHT22;156;48.738;9.228;2022-12-18T03:05:04;-8.30;1.00
336;DHT22;156;48.738;9.228;2022-12-18T03:07:38;-8.20;10.20
336;DHT22;156;48.738;9.228;2022-12-18T03:10:08;-8.20;1.00
336;DHT22;156;48.738;9.228;2022-12-18T03:12:41;-8.30;1.00
336;DHT22;156;48.738;9.228;2022-12-18T03:15:14;-8.40;1.00
336;DHT22;156;48.738;9.228;2022-12-18T03:17:48;-8.40;6.40
336;DHT22;156;48.738;9.228;2022-12-18T03:20:20;-8.40;1.00
336;DHT22;156;48.738;9.228;2022-12-18T03:22:51;-8.40;1.00
336;DHT22;156;48.738;9.228;2022-12-18T03:25:19;-8.40;1.00
336;DHT22;156;48.738;9.228;2022-12-18T03:27:52;-8.40;1.00
336;DHT22;156;48.738;9.228;2022-12-18T03:30:21;-8.50;1.00
336;DHT22;156;48.738;9.228;2022-12-18T03:32:50;-8.50;1.00
336;DHT22;156;48.738;9.228;2022-12-18T03:35:21;-8.60;1.00
336;DHT22;156;48.738;9.228;2022-12-18T03:37:49;-8.70;1.00
336;DHT22;156;48.738;9.228;2022-12-18T03:40:17;-8.40;1.00
336;DHT22;156;48.738;9.228;2022-12-18T03:42:48;-8.80;1.00
336;DHT22;156;48.738;9.228;2022-12-18T03:45:21;-9.00;1.00
336;DHT22;156;48.738;9.228;2022-12-18T03:47:57;-9.00;1.00
336;DHT22;156;48.738;9.228;2022-12-18T03:50:37;-9.20;1.00
336;DHT22;156;48.738;9.228;2022-12-18T03:53:17;-9.10;1.00
336;DHT22;156;48.738;9.228;2022-12-18T03:55:45;-9.20;1.00
336;DHT22;156;48.738;9.228;2022-12-18T03:58:18;-9.20;1.00
336;DHT22;156;48.738;9.228;2022-12-18T04:00:48;-9.30;1.00
336;DHT22;156;48.738;9.228;2022-12-18T04:03:17;-9.40;1.00
336;DHT22;156;48.738;9.228;2022-12-18T04:05:47;-9.30;1.00
336;DHT22;156;48.738;9.228;2022-12-18T04:08:16;-9.40;1.00
336;DHT22;156;48.738;9.228;2022-12-18T04:10:43;-9.50;1.00
336;DHT22;156;48.738;9.228;2022-12-18T04:13:10;-9.60;1.00
336;DHT22;156;48.738;9.228;2022-12-18T04:15:38;-9.60;1.00
336;DHT22;156;48.738;9.228;2022-12-18T04:18:05;-9.60;1.00
336;DHT22;156;48.738;9.228;2022-12-18T04:20:32;-9.70;1.00
336;DHT22;156;48.738;9.228;2022-12-18T04:22:59;-9.70;1.00
336;DHT22;156;48.738;9.228;2022-12-18T04:25:26;-9.80;1.00
336;DHT22;156;48.738;9.228;2022-12-18T04:27:53;-9.80;1.00
336;DHT22;156;48.738;9.228;2022-12-18T04:30:20;-9.90;1.00
336;DHT22;156;48.738;9.228;2022-12-18T04:32:48;-10.00;1.00
336;DHT22;156;48.738;9.228;2022-12-18T04:35:15;-10.00;1.00
336;DHT22;156;48.738;9.228;2022-12-18T04:37:42;-10.00;1.00
336;DHT22;156;48.738;9.228;2022-12-18T04:40:10;-10.00;1.00
336;DHT22;156;48.738;9.228;2022-12-18T04:42:37;-10.00;1.00
336;DHT22;156;48.738;9.228;2022-12-18T04:45:06;-10.00;1.00
336;DHT22;156;48.738;9.228;2022-12-18T04:47:33;-10.00;1.00
336;DHT22;156;48.738;9.228;2022-12-18T04:50:01;-10.00;1.00
336;DHT22;156;48.738;9.228;2022-12-18T04:52:31;-10.00;1.00
336;DHT22;156;48.738;9.228;2022-12-18T04:54:58;-10.00;1.00
336;DHT22;156;48.738;9.228;2022-12-18T04:57:25;-10.00;1.00
336;DHT22;156;48.738;9.228;2022-12-18T04:59:52;-10.10;1.00
336;DHT22;156;48.738;9.228;2022-12-18T05:02:19;-10.30;1.00
336;DHT22;156;48.738;9.228;2022-12-18T05:04:46;-10.20;1.00
336;DHT22;156;48.738;9.228;2022-12-18T05:07:14;-10.30;1.00
336;DHT22;156;48.738;9.228;2022-12-18T05:09:41;-10.30;1.00
336;DHT22;156;48.738;9.228;2022-12-18T05:12:08;-10.40;1.00
336;DHT22;156;48.738;9.228;2022-12-18T05:14:35;-10.40;1.00
336;DHT22;156;48.738;9.228;2022-12-18T05:17:02;-10.50;1.00
336;DHT22;156;48.738;9.228;2022-12-18T05:19:28;-10.50;1.00
336;DHT22;156;48.738;9.228;2022-12-18T05:21:55;-10.50;1.00
336;DHT22;156;48.738;9.228;2022-12-18T05:24:24;-10.40;1.00
336;DHT22;156;48.738;9.228;2022-12-18T05:26:51;-10.50;1.00
336;DHT22;156;48.738;9.228;2022-12-18T05:29:17;-10.50;1.00
336;DHT22;156;48.738;9.228;2022-12-18T05:31:44;-10.50;1.00
336;DHT22;156;48.738;9.228;2022-12-18T05:34:11;-10.50;1.00
336;DHT22;156;48.738;9.228;2022-12-18T05:36:38;-10.50;1.00
336;DHT22;156;48.738;9.228;2022-12-18T05:39:05;-10.50;1.00
336;DHT22;156;48.738;9.228;2022-12-18T05:41:33;-10.50;1.00
336;DHT22;156;48.738;9.228;2022-12-18T05:44:00;-10.50;1.00
336;DHT22;156;48.738;9.228;2022-12-18T05:46:27;-10.50;1.00
336;DHT22;156;48.738;9.228;2022-12-18T05:48:55;-10.50;1.00
336;DHT22;156;48.738;9.228;2022-12-18T05:51:22;-10.60;1.00
336;DHT22;156;48.738;9.228;2022-12-18T05:53:49;-10.50;1.00
336;DHT22;156;48.738;9.228;2022-12-18T05:56:19;-10.40;1.00
336;DHT22;156;48.738;9.228;2022-12-18T05:58:50;-10.40;1.00
336;DHT22;156;48.738;9.228;2022-12-18T06:01:20;-10.40;1.00
336;DHT22;156;48.738;9.228;2022-12-18T06:03:48;-10.40;1.00
336;DHT22;156;48.738;9.228;2022-12-18T06:06:16;-10.40;1.00
336;DHT22;156;48.738;9.228;2022-12-18T06:08:44;-10.40;1.00
336;DHT22;156;48.738;9.228;2022-12-18T06:11:11;-10.40;1.00
336;DHT22;156;48.738;9.228;2022-12-18T06:13:38;-10.40;1.00
336;DHT22;156;48.738;9.228;2022-12-18T06:16:07;-10.40;1.00
336;DHT22;156;48.738;9.228;2022-12-18T06:18:34;-10.40;1.00
336;DHT22;156;48.738;9.228;2022-12-18T06:21:01;-10.30;1.00
336;DHT22;156;48.738;9.228;2022-12-18T06:23:28;-10.20;1.00
336;DHT22;156;48.738;9.228;2022-12-18T06:25:55;-10.20;1.00
336;DHT22;156;48.738;9.228;2022-12-18T06:28:22;-10.20;1.00
336;DHT22;156;48.738;9.228;2022-12-18T06:30:49;-10.20;1.00
336;DHT22;156;48.738;9.228;2022-12-18T06:33:18;-10.20;1.00
336;DHT22;156;48.738;9.228;2022-12-18T06:35:44;-10.20;1.00
336;DHT22;156;48.738;9.228;2022-12-18T06:38:12;-10.20;1.00
336;DHT22;156;48.738;9.228;2022-12-18T06:40:39;-10.20;1.00
336;DHT22;156;48.738;9.228;2022-12-18T06:43:06;-10.10;1.00
336;DHT22;156;48.738;9.228;2022-12-18T06:45:33;-10.00;1.00
336;DHT22;156;48.738;9.228;2022-12-18T06:48:00;-9.90;1.00
336;DHT22;156;48.738;9.228;2022-12-18T06:50:29;-9.80;1.00
336;DHT22;156;48.738;9.228;2022-12-18T06:52:56;-9.80;1.00
336;DHT22;156;48.738;9.228;2022-12-18T06:55:22;-9.80;1.00
336;DHT22;156;48.738;9.228;2022-12-18T06:57:49;-9.80;1.00
336;DHT22;156;48.738;9.228;2022-12-18T07:00:17;-9.80;1.00
336;DHT22;156;48.738;9.228;2022-12-18T07:02:43;-9.70;1.00
336;DHT22;156;48.738;9.228;2022-12-18T07:05:10;-9.70;1.00
336;DHT22;156;48.738;9.228;2022-12-18T07:07:38;-9.70;1.00
336;DHT22;156;48.738;9.228;2022-12-18T07:10:06;-9.70;1.00
336;DHT22;156;48.738;9.228;2022-12-18T07:12:33;-9.60;1.00
336;DHT22;156;48.738;9.228;2022-12-18T07:15:00;-9.60;1.00
336;DHT22;156;48.738;9.228;2022-12-18T07:17:26;-9.60;1.00
336;DHT22;156;48.738;9.228;2022-12-18T07:19:53;-9.60;1.00
336;DHT22;156;48.738;9.228;2022-12-18T07:22:21;-9.60;1.00
336;DHT22;156;48.738;9.228;2022-12-18T07:24:49;-9.50;1.00
336;DHT22;156;48.738;9.228;2022-12-18T07:27:16;-9.50;1.00
336;DHT22;156;48.738;9.228;2022-12-18T07:29:43;-9.40;1.00
336;DHT22;156;48.738;9.228;2022-12-18T07:32:10;-9.40;1.00
336;DHT22;156;48.738;9.228;2022-12-18T07:34:36;-9.20;1.00
336;DHT22;156;48.738;9.228;2022-12-18T07:37:03;-9.20;1.00
336;DHT22;156;48.738;9.228;2022-12-18T07:39:30;-9.20;1.00
336;DHT22;156;48.738;9.228;2022-12-18T07:41:59;-9.10;1.00
336;DHT22;156;48.738;9.228;2022-12-18T07:44:43;-9.00;1.00
336;DHT22;156;48.738;9.228;2022-12-18T07:47:10;-9.00;1.00
336;DHT22;156;48.738;9.228;2022-12-18T07:52:05;-8.90;1.00
336;DHT22;156;48.738;9.228;2022-12-18T07:54:31;-8.80;1.00
336;DHT22;156;48.738;9.228;2022-12-18T07:57:00;-8.80;1.00
336;DHT22;156;48.738;9.228;2022-12-18T07:59:27;-8.80;1.00
336;DHT22;156;48.738;9.228;2022-12-18T08:01:53;-8.80;1.00
336;DHT22;156;48.738;9.228;2022-12-18T08:04:20;-8.70;1.00
336;DHT22;156;48.738;9.228;2022-12-18T08:06:47;-8.60;1.00
336;DHT22;156;48.738;9.228;2022-12-18T08:09:14;-8.60;1.00
336;DHT22;156;48.738;9.228;2022-12-18T08:11:41;-8.50;1.00
336;DHT22;156;48.738;9.228;2022-12-18T08:14:09;-8.40;2.60
336;DHT22;156;48.738;9.228;2022-12-18T08:16:36;-8.40;2.50
336;DHT22;156;48.738;9.228;2022-12-18T08:19:03;-8.30;2.50
336;DHT22;156;48.738;9.228;2022-12-18T08:21:31;-8.20;3.10
336;DHT22;156;48.738;9.228;2022-12-18T08:23:59;-8.10;3.00
336;DHT22;156;48.738;9.228;2022-12-18T08:26:28;-8.10;3.00
336;DHT22;156;48.738;9.228;2022-12-18T08:28:57;-8.10;2.90
336;DHT22;156;48.738;9.228;2022-12-18T08:31:26;-8.00;3.10
336;DHT22;156;48.738;9.228;2022-12-18T08:33:54;-8.00;3.20
336;DHT22;156;48.738;9.228;2022-12-18T08:36:22;-8.00;3.10
336;DHT22;156;48.738;9.228;2022-12-18T08:38:49;-7.90;5.90
336;DHT22;156;48.738;9.228;2022-12-18T08:41:17;-7.90;6.40
336;DHT22;156;48.738;9.228;2022-12-18T08:43:45;-7.90;6.10
336;DHT22;156;48.738;9.228;2022-12-18T08:46:34;-7.90;3.60
336;DHT22;156;48.738;9.228;2022-12-18T08:49:02;-7.90;3.30
336;DHT22;156;48.738;9.228;2022-12-18T08:51:29;-8.00;3.00
336;DHT22;156;48.738;9.228;2022-12-18T08:53:56;-8.00;2.80
336;DHT22;156;48.738;9.228;2022-12-18T08:56:23;-7.90;3.20
336;DHT22;156;48.738;9.228;2022-12-18T08:58:52;-7.90;4.50
336;DHT22;156;48.738;9.228;2022-12-18T09:01:19;-7.80;3.60
336;DHT22;156;48.738;9.228;2022-12-18T09:03:48;-7.80;4.00
336;DHT22;156;48.738;9.228;2022-12-18T09:06:16;-7.80;5.20
336;DHT22;156;48.738;9.228;2022-12-18T09:08:43;-7.80;4.70
336;DHT22;156;48.738;9.228;2022-12-18T09:11:14;-7.70;6.90
336;DHT22;156;48.738;9.228;2022-12-18T09:13:43;-7.70;6.00
336;DHT22;156;48.738;9.228;2022-12-18T09:16:11;-7.70;6.70
336;DHT22;156;48.738;9.228;2022-12-18T09:18:38;-7.80;6.10
336;DHT22;156;48.738;9.228;2022-12-18T09:21:11;-7.80;6.50
336;DHT22;156;48.738;9.228;2022-12-18T09:23:39;-7.70;6.70
336;DHT22;156;48.738;9.228;2022-12-18T09:26:06;-7.70;6.10
336;DHT22;156;48.738;9.228;2022-12-18T09:28:33;-7.60;6.70
336;DHT22;156;48.738;9.228;2022-12-18T09:31:04;-7.60;5.60
336;DHT22;156;48.738;9.228;2022-12-18T09:33:31;-7.60;6.40
336;DHT22;156;48.738;9.228;2022-12-18T09:36:00;-7.60;5.70
336;DHT22;156;48.738;9.228;2022-12-18T09:38:28;-7.50;6.20
336;DHT22;156;48.738;9.228;2022-12-18T09:40:59;-7.50;5.90
336;DHT22;156;48.738;9.228;2022-12-18T09:43:29;-7.50;6.10
336;DHT22;156;48.738;9.228;2022-12-18T09:46:04;-7.40;6.90
336;DHT22;156;48.738;9.228;2022-12-18T09:48:36;-7.30;7.60
336;DHT22;156;48.738;9.228;2022-12-18T09:51:10;-7.30;7.70
336;DHT22;156;48.738;9.228;2022-12-18T09:53:44;-7.20;7.60
336;DHT22;156;48.738;9.228;2022-12-18T09:56:15;-7.10;7.80
336;DHT22;156;48.738;9.228;2022-12-18T09:58:48;-7.10;8.00
336;DHT22;156;48.738;9.228;2022-12-18T10:01:21;-7.00;9.60
336;DHT22;156;48.738;9.228;2022-12-18T10:03:48;-6.90;11.20
336;DHT22;156;48.738;9.228;2022-12-18T10:06:21;-6.80;11.90
336;DHT22;156;48.738;9.228;2022-12-18T10:08:59;-5.90;12.70
336;DHT22;156;48.738;9.228;2022-12-18T10:11:37;-6.60;12.00
336;DHT22;156;48.738;9.228;2022-12-18T10:14:12;-6.60;10.90
336;DHT22;156;48.738;9.228;2022-12-18T10:16:51;-6.50;9.20
336;DHT22;156;48.738;9.228;2022-12-18T10:19:37;-6.50;8.10
336;DHT22;156;48.738;9.228;2022-12-18T10:22:16;-6.40;4.50
336;DHT22;156;48.738;9.228;2022-12-18T10:24:54;-6.40;3.70
336;DHT22;156;48.738;9.228;2022-12-18T10:27:25;-6.40;4.00
336;DHT22;156;48.738;9.228;2022-12-18T10:29:54;-6.30;4.10
336;DHT22;156;48.738;9.228;2022-12-18T10:32:23;-6.30;4.30
336;DHT22;156;48.738;9.228;2022-12-18T10:34:53;-6.00;6.30
336;DHT22;156;48.738;9.228;2022-12-18T10:37:23;-6.00;6.90
336;DHT22;156;48.738;9.228;2022-12-18T10:40:09;-5.90;6.10
336;DHT22;156;48.738;9.228;2022-12-18T10:42:37;-5.80;4.50
336;DHT22;156;48.738;9.228;2022-12-18T10:45:10;-5.70;4.50
336;DHT22;156;48.738;9.228;2022-12-18T10:47:42;-5.60;5.10
336;DHT22;156;48.738;9.228;2022-12-18T10:50:19;-5.50;8.50
336;DHT22;156;48.738;9.228;2022-12-18T10:52:55;-5.30;8.80
336;DHT22;156;48.738;9.228;2022-12-18T10:55:25;-5.10;9.00
336;DHT22;156;48.738;9.228;2022-12-18T10:57:53;-5.00;9.10
336;DHT22;156;48.738;9.228;2022-12-18T11:00:25;-5.00;4.90
336;DHT22;156;48.738;9.228;2022-12-18T11:02:54;-4.90;5.20
336;DHT22;156;48.738;9.228;2022-12-18T11:05:28;-4.80;5.10
336;DHT22;156;48.738;9.228;2022-12-18T11:07:55;-4.80;2.00
336;DHT22;156;48.738;9.228;2022-12-18T11:10:28;-4.80;1.00
336;DHT22;156;48.738;9.228;2022-12-18T11:13:09;-4.80;1.00
336;DHT22;156;48.738;9.228;2022-12-18T11:15:40;-4.80;1.00
336;DHT22;156;48.738;9.228;2022-12-18T11:18:16;-4.80;1.00
336;DHT22;156;48.738;9.228;2022-12-18T11:20:50;-4.80;1.00
336;DHT22;156;48.738;9.228;2022-12-18T11:23:19;-4.60;1.00
336;DHT22;156;48.738;9.228;2022-12-18T11:25:56;-4.60;1.00
336;DHT22;156;48.738;9.228;2022-12-18T11:28:33;-2.30;1.00
336;DHT22;156;48.738;9.228;2022-12-18T11:31:20;-4.60;1.00
336;DHT22;156;48.738;9.228;2022-12-18T11:33:58;-4.40;1.00
336;DHT22;156;48.738;9.228;2022-12-18T11:36:31;-4.40;1.00
336;DHT22;156;48.738;9.228;2022-12-18T11:39:03;-4.30;1.00
336;DHT22;156;48.738;9.228;2022-12-18T11:41:37;-4.10;1.00
336;DHT22;156;48.738;9.228;2022-12-18T11:44:25;-3.30;1.00
336;DHT22;156;48.738;9.228;2022-12-18T11:46:56;-3.70;1.00
336;DHT22;156;48.738;9.228;2022-12-18T11:49:30;-3.30;1.00
336;DHT22;156;48.738;9.228;2022-12-18T11:52:03;-2.70;1.00
336;DHT22;156;48.738;9.228;2022-12-18T11:54:31;-2.40;1.00
336;DHT22;156;48.738;9.228;2022-12-18T11:57:07;-1.90;1.00
336;DHT22;156;48.738;9.228;2022-12-18T11:59:47;-1.30;1.00
336;DHT22;156;48.738;9.228;2022-12-18T12:02:28;-1.30;1.00
336;DHT22;156;48.738;9.228;2022-12-18T12:05:25;-0.90;1.00
336;DHT22;156;48.738;9.228;2022-12-18T12:08:00;-0.70;1.00
336;DHT22;156;48.738;9.228;2022-12-18T12:10:40;-0.40;1.00
336;DHT22;156;48.738;9.228;2022-12-18T12:13:23;-0.30;1.00
336;DHT22;156;48.738;9.228;2022-12-18T12:16:05;-0.20;1.00
336;DHT22;156;48.738;9.228;2022-12-18T12:18:44;-0.20;1.00
336;DHT22;156;48.738;9.228;2022-12-18T12:21:18;-0.30;1.00
336;DHT22;156;48.738;9.228;2022-12-18T12:23:54;-0.50;1.00
336;DHT22;156;48.738;9.228;2022-12-18T12:26:32;-0.60;1.00
336;DHT22;156;48.738;9.228;2022-12-18T12:32:07;-0.70;1.00
336;DHT22;156;48.738;9.228;2022-12-18T12:34:50;-0.70;1.00
336;DHT22;156;48.738;9.228;2022-12-18T12:37:27;-0.50;1.00
336;DHT22;156;48.738;9.228;2022-12-18T12:39:57;-0.50;1.00
336;DHT22;156;48.738;9.228;2022-12-18T12:42:30;-0.50;1.00
336;DHT22;156;48.738;9.228;2022-12-18T12:45:21;-0.50;1.00
336;DHT22;156;48.738;9.228;2022-12-18T12:47:50;-0.30;1.00
336;DHT22;156;48.738;9.228;2022-12-18T12:50:20;-0.30;1.00
336;DHT22;156;48.738;9.228;2022-12-18T12:52:51;-0.10;1.00
336;DHT22;156;48.738;9.228;2022-12-18T12:55:21;0.00;1.00
336;DHT22;156;48.738;9.228;2022-12-18T12:57:55;0.10;1.00
336;DHT22;156;48.738;9.228;2022-12-18T13:00:29;0.40;1.00
336;DHT22;156;48.738;9.228;2022-12-18T13:03:01;0.40;1.00
336;DHT22;156;48.738;9.228;2022-12-18T13:05:38;0.50;1.00
336;DHT22;156;48.738;9.228;2022-12-18T13:08:09;0.50;1.00
336;DHT22;156;48.738;9.228;2022-12-18T13:10:37;0.70;1.00
336;DHT22;156;48.738;9.228;2022-12-18T13:13:06;0.70;1.00
336;DHT22;156;48.738;9.228;2022-12-18T13:15:37;0.70;1.00
336;DHT22;156;48.738;9.228;2022-12-18T13:18:23;0.70;1.00
336;DHT22;156;48.738;9.228;2022-12-18T13:21:02;1.00;1.00
336;DHT22;156;48.738;9.228;2022-12-18T13:23:34;0.70;1.00
336;DHT22;156;48.738;9.228;2022-12-18T13:26:33;0.70;1.00
336;DHT22;156;48.738;9.228;2022-12-18T13:29:01;0.70;1.00
336;DHT22;156;48.738;9.228;2022-12-18T13:34:35;0.60;1.00
336;DHT22;156;48.738;9.228;2022-12-18T13:37:36;0.60;1.00
336;DHT22;156;48.738;9.228;2022-12-18T13:43:39;0.60;1.00
336;DHT22;156;48.738;9.228;2022-12-18T13:46:22;0.60;1.00
336;DHT22;156;48.738;9.228;2022-12-18T13:48:53;0.50;1.00
336;DHT22;156;48.738;9.228;2022-12-18T13:51:24;0.30;1.00
336;DHT22;156;48.738;9.228;2022-12-18T13:53:54;0.40;1.00
336;DHT22;156;48.738;9.228;2022-12-18T13:56:25;0.30;1.00
336;DHT22;156;48.738;9.228;2022-12-18T13:59:13;0.20;1.00
336;DHT22;156;48.738;9.228;2022-12-18T14:01:45;0.10;1.00
336;DHT22;156;48.738;9.228;2022-12-18T14:04:19;0.10;1.00
336;DHT22;156;48.738;9.228;2022-12-18T14:06:49;0.00;1.00
336;DHT22;156;48.738;9.228;2022-12-18T14:09:18;-0.20;1.00
336;DHT22;156;48.738;9.228;2022-12-18T14:11:48;-0.20;1.00
336;DHT22;156;48.738;9.228;2022-12-18T14:14:16;-0.30;1.00
336;DHT22;156;48.738;9.228;2022-12-18T14:16:44;-0.40;1.00
336;DHT22;156;48.738;9.228;2022-12-18T14:19:15;-0.50;1.00
336;DHT22;156;48.738;9.228;2022-12-18T14:21:47;-0.60;1.00
336;DHT22;156;48.738;9.228;2022-12-18T14:24:16;-0.80;1.00
336;DHT22;156;48.738;9.228;2022-12-18T14:26:44;-1.00;1.00
336;DHT22;156;48.738;9.228;2022-12-18T14:29:25;-1.30;1.00
336;DHT22;156;48.738;9.228;2022-12-18T14:32:10;-1.50;1.00
336;DHT22;156;48.738;9.228;2022-12-18T14:34:38;-1.70;1.00
336;DHT22;156;48.738;9.228;2022-12-18T14:37:08;-1.80;1.00
336;DHT22;156;48.738;9.228;2022-12-18T14:39:35;-1.80;1.00
336;DHT22;156;48.738;9.228;2022-12-18T14:42:02;-2.00;1.00
336;DHT22;156;48.738;9.228;2022-12-18T14:44:29;-2.00;1.00
336;DHT22;156;48.738;9.228;2022-12-18T14:46:56;-2.10;1.00
336;DHT22;156;48.738;9.228;2022-12-18T14:49:26;-2.10;1.00
336;DHT22;156;48.738;9.228;2022-12-18T14:51:55;-2.20;1.00
336;DHT22;156;48.738;9.228;2022-12-18T14:54:25;-2.40;1.00
336;DHT22;156;48.738;9.228;2022-12-18T14:56:56;-2.40;1.00
336;DHT22;156;48.738;9.228;2022-12-18T14:59:27;-2.40;1.00
336;DHT22;156;48.738;9.228;2022-12-18T15:02:00;-2.50;1.00
336;DHT22;156;48.738;9.228;2022-12-18T15:04:30;-2.60;1.00
336;DHT22;156;48.738;9.228;2022-12-18T15:07:07;-2.70;1.00
336;DHT22;156;48.738;9.228;2022-12-18T15:09:38;-2.70;1.00
336;DHT22;156;48.738;9.228;2022-12-18T15:12:15;-2.80;1.00
336;DHT22;156;48.738;9.228;2022-12-18T15:14:44;-2.90;1.00
336;DHT22;156;48.738;9.228;2022-12-18T15:17:17;-3.00;1.00
336;DHT22;156;48.738;9.228;2022-12-18T15:19:45;-3.10;1.00
336;DHT22;156;48.738;9.228;2022-12-18T15:22:18;-3.10;1.00
336;DHT22;156;48.738;9.228;2022-12-18T15:24:48;-3.20;1.00
336;DHT22;156;48.738;9.228;2022-12-18T15:27:30;-3.40;1.00
336;DHT22;156;48.738;9.228;2022-12-18T15:30:20;-3.40;1.00
336;DHT22;156;48.738;9.228;2022-12-18T15:32:48;-3.50;1.00
336;DHT22;156;48.738;9.228;2022-12-18T15:35:18;-3.50;1.00
336;DHT22;156;48.738;9.228;2022-12-18T15:37:45;-3.60;1.00
336;DHT22;156;48.738;9.228;2022-12-18T15:40:15;-3.70;1.00
336;DHT22;156;48.738;9.228;2022-12-18T15:42:42;-3.70;1.00
336;DHT22;156;48.738;9.228;2022-12-18T15:45:27;-3.70;1.00
336;DHT22;156;48.738;9.228;2022-12-18T15:47:55;-3.70;1.00
336;DHT22;156;48.738;9.228;2022-12-18T15:50:22;-3.70;1.00
336;DHT22;156;48.738;9.228;2022-12-18T15:52:51;-3.70;1.00
336;DHT22;156;48.738;9.228;2022-12-18T15:55:21;-3.80;1.00
336;DHT22;156;48.738;9.228;2022-12-18T15:58:11;-3.80;1.00
336;DHT22;156;48.738;9.228;2022-12-18T16:00:39;-3.80;1.00
336;DHT22;156;48.738;9.228;2022-12-18T16:03:06;-3.80;1.00
336;DHT22;156;48.738;9.228;2022-12-18T16:05:33;-3.80;1.00
336;DHT22;156;48.738;9.228;2022-12-18T16:08:00;-3.80;1.00
336;DHT22;156;48.738;9.228;2022-12-18T16:10:29;-3.80;1.00
336;DHT22;156;48.738;9.228;2022-12-18T16:13:05;-3.80;1.00
336;DHT22;156;48.738;9.228;2022-12-18T16:15:32;-3.80;1.00
336;DHT22;156;48.738;9.228;2022-12-18T16:17:59;-3.90;1.00
336;DHT22;156;48.738;9.228;2022-12-18T16:20:26;-3.90;1.00
336;DHT22;156;48.738;9.228;2022-12-18T16:22:53;-3.90;1.00
336;DHT22;156;48.738;9.228;2022-12-18T16:25:21;-3.90;1.00
336;DHT22;156;48.738;9.228;2022-12-18T16:27:50;-3.90;1.00
336;DHT22;156;48.738;9.228;2022-12-18T16:30:19;-3.80;1.00
336;DHT22;156;48.738;9.228;2022-12-18T16:32:46;-3.90;1.00
336;DHT22;156;48.738;9.228;2022-12-18T16:35:14;-3.90;1.00
336;DHT22;156;48.738;9.228;2022-12-18T16:37:42;-3.90;1.00
336;DHT22;156;48.738;9.228;2022-12-18T16:40:12;-4.00;1.00
336;DHT22;156;48.738;9.228;2022-12-18T16:42:41;-4.00;1.00
336;DHT22;156;48.738;9.228;2022-12-18T16:45:12;-4.00;1.00
336;DHT22;156;48.738;9.228;2022-12-18T16:47:40;-4.00;1.00
336;DHT22;156;48.738;9.228;2022-12-18T16:50:08;-4.00;1.00
336;DHT22;156;48.738;9.228;2022-12-18T16:52:37;-3.90;1.00
336;DHT22;156;48.738;9.228;2022-12-18T16:55:04;-3.90;1.00
336;DHT22;156;48.738;9.228;2022-12-18T16:57:31;-3.90;1.00
336;DHT22;156;48.738;9.228;2022-12-18T16:59:58;-4.00;1.20
336;DHT22;156;48.738;9.228;2022-12-18T17:02:27;-4.00;1.60
336;DHT22;156;48.738;9.228;2022-12-18T17:04:55;-4.00;2.00
336;DHT22;156;48.738;9.228;2022-12-18T17:07:22;-3.90;5.00
336;DHT22;156;48.738;9.228;2022-12-18T17:09:49;-3.90;3.60
336;DHT22;156;48.738;9.228;2022-12-18T17:12:18;-3.90;5.20
336;DHT22;156;48.738;9.228;2022-12-18T17:14:45;-3.90;5.50
336;DHT22;156;48.738;9.228;2022-12-18T17:17:12;-4.00;5.00
336;DHT22;156;48.738;9.228;2022-12-18T17:19:41;-4.00;5.80
336;DHT22;156;48.738;9.228;2022-12-18T17:22:07;-3.90;5.90